Time;durP1;ratioP1;P1;durP2;ratioP2;P2;SDS_P1;SDS_P2;PMS_P1;PMS_P2;Temp;Humidity;BMP_temperature;BMP_pressure;BME280_temperature;BME280_humidity;BME280_pressure;Samples;Min_cycle;Max_cycle;Signal;HPM_P1;HPM_P2
2021/12/27 00:01:32;;;;;;;11.27;5.28;;;-1.60;99.90;;;;;;4957276;28;20078;-82
2021/12/27 00:03:58;;;;;;;12.68;5.80;;;-1.70;99.90;;;;;;4955547;28;20066;-82
2021/12/27 00:06:24;;;;;;;10.57;5.97;;;-1.10;99.90;;;;;;4973431;28;20046;-82
2021/12/27 00:08:51;;;;;;;14.02;6.07;;;-1.70;99.90;;;;;;4974997;28;20552;-82
2021/12/27 00:11:16;;;;;;;12.65;5.57;;;-1.20;99.90;;;;;;4981187;28;20497;-83
2021/12/27 00:13:42;;;;;;;14.85;5.78;;;-1.70;99.90;;;;;;4975242;28;20054;-83
2021/12/27 00:16:09;;;;;;;16.58;6.28;;;-0.60;99.90;;;;;;4974690;28;20441;-82
2021/12/27 00:18:34;;;;;;;10.32;5.32;;;-1.70;99.90;;;;;;4957807;28;20043;-82
2021/12/27 00:21:00;;;;;;;10.52;5.68;;;-1.10;99.90;;;;;;4982180;28;20094;-82
2021/12/27 00:23:26;;;;;;;12.05;5.85;;;-1.70;99.90;;;;;;4974948;28;20493;-82
2021/12/27 00:25:52;;;;;;;10.35;5.47;;;-1.70;99.90;;;;;;4974475;28;20119;-82
2021/12/27 00:28:18;;;;;;;13.15;6.65;;;-0.90;99.90;;;;;;4956989;28;20497;-83
2021/12/27 00:30:43;;;;;;;18.75;6.88;;;-1.20;99.90;;;;;;4974243;28;20039;-82
2021/12/27 00:33:09;;;;;;;18.08;7.45;;;-1.10;99.90;;;;;;4959754;28;20027;-82
2021/12/27 00:35:36;;;;;;;11.73;5.85;;;-0.90;99.90;;;;;;4974866;28;20049;-82
2021/12/27 00:38:03;;;;;;;13.50;5.97;;;-1.70;99.90;;;;;;4974333;28;20058;-82
2021/12/27 00:40:29;;;;;;;11.60;6.20;;;-1.70;99.90;;;;;;4957320;28;20042;-83
2021/12/27 00:42:54;;;;;;;13.25;6.68;;;0.20;99.90;;;;;;4974715;28;20046;-82
2021/12/27 00:45:21;;;;;;;12.13;6.40;;;-1.70;99.90;;;;;;4974316;28;20047;-82
2021/12/27 00:47:47;;;;;;;12.80;6.25;;;-1.70;99.90;;;;;;4981430;28;20078;-82
2021/12/27 00:50:13;;;;;;;13.40;6.43;;;-1.00;99.90;;;;;;4980798;28;20074;-82
2021/12/27 00:52:40;;;;;;;17.35;8.35;;;-1.80;99.90;;;;;;4975354;28;20046;-82
2021/12/27 00:55:08;;;;;;;14.13;6.75;;;-1.70;99.90;;;;;;4974029;28;20114;-82
2021/12/27 00:57:34;;;;;;;12.52;6.68;;;-1.70;99.90;;;;;;4973510;28;20047;-83
2021/12/27 01:00:00;;;;;;;13.18;7.30;;;-1.70;99.90;;;;;;4973724;28;20043;-82
2021/12/27 01:02:26;;;;;;;14.93;6.65;;;-1.80;99.90;;;;;;4974693;28;20045;-83
2021/12/27 01:04:52;;;;;;;14.95;7.22;;;-1.80;99.90;;;;;;4981435;28;20046;-82
2021/12/27 01:07:18;;;;;;;14.15;7.47;;;-1.10;99.90;;;;;;4973678;28;20398;-82
2021/12/27 01:17:45;;;;;;;12.00;6.32;;;-1.90;99.90;;;;;;4973418;28;20066;-82
2021/12/27 01:20:18;;;;;;;15.20;6.97;;;-1.90;99.90;;;;;;4973640;28;20405;-83
2021/12/27 01:22:43;;;;;;;15.23;7.78;;;-1.90;99.90;;;;;;4981345;28;20397;-83
2021/12/27 01:25:12;;;;;;;14.73;7.57;;;-2.00;99.90;;;;;;4973515;28;20047;-82
2021/12/27 01:27:39;;;;;;;12.50;7.30;;;-1.20;99.90;;;;;;4973338;28;20043;-82
2021/12/27 01:30:07;;;;;;;14.25;7.45;;;-2.00;99.90;;;;;;4977171;28;20042;-82
2021/12/27 01:32:38;;;;;;;14.00;6.93;;;-2.00;99.90;;;;;;4959861;28;20062;-82
2021/12/27 01:35:05;;;;;;;13.73;6.97;;;-2.10;99.90;;;;;;4981005;28;20050;-82
2021/12/27 01:37:31;;;;;;;14.00;8.07;;;-2.00;99.90;;;;;;4973239;28;20046;-82
2021/12/27 01:39:56;;;;;;;16.23;8.07;;;-2.00;99.90;;;;;;4973656;28;20427;-82
2021/12/27 01:42:23;;;;;;;14.35;7.70;;;-1.70;99.90;;;;;;4973167;28;20121;-82
2021/12/27 01:44:49;;;;;;;15.68;7.13;;;-2.10;99.90;;;;;;4972963;28;20476;-82
2021/12/27 01:47:14;;;;;;;15.73;7.90;;;-2.00;99.90;;;;;;4973219;28;20048;-82
2021/12/27 01:49:40;;;;;;;20.48;8.77;;;-2.10;99.90;;;;;;4963664;28;20054;-82
2021/12/27 01:52:06;;;;;;;17.02;8.40;;;-2.70;99.90;;;;;;4964257;28;20049;-82
2021/12/27 01:54:32;;;;;;;15.38;7.40;;;-1.50;99.90;;;;;;4966899;28;20054;-82
2021/12/27 01:57:00;;;;;;;14.25;7.53;;;-2.00;99.90;;;;;;4955844;28;20082;-82
2021/12/27 01:59:26;;;;;;;16.08;7.88;;;-2.10;99.90;;;;;;4973191;28;20038;-83
2021/12/27 02:01:51;;;;;;;12.30;7.32;;;-2.00;99.90;;;;;;4953342;28;20134;-83
2021/12/27 02:04:17;;;;;;;12.57;6.80;;;-2.00;99.90;;;;;;4955719;28;20134;-82
2021/12/27 02:06:43;;;;;;;15.05;7.82;;;-1.90;99.90;;;;;;4973496;28;20113;-82
2021/12/27 02:09:08;;;;;;;14.65;7.80;;;-2.00;99.90;;;;;;4975088;28;20656;-83
2021/12/27 02:11:35;;;;;;;13.55;6.63;;;-0.50;99.90;;;;;;4977408;28;20489;-82
2021/12/27 02:14:03;;;;;;;13.43;7.00;;;-1.70;99.90;;;;;;4973037;28;20118;-82
2021/12/27 02:16:28;;;;;;;13.88;7.95;;;-2.00;99.90;;;;;;4973151;28;20090;-82
2021/12/27 02:18:54;;;;;;;15.18;7.30;;;-1.90;99.90;;;;;;4972928;28;20077;-82
2021/12/27 02:21:22;;;;;;;12.13;7.53;;;-0.90;99.90;;;;;;4957820;28;20506;-82
2021/12/27 02:23:52;;;;;;;14.75;6.45;;;-1.70;99.90;;;;;;4976623;28;20056;-82
2021/12/27 02:26:18;;;;;;;13.10;7.45;;;-1.90;99.90;;;;;;4983301;28;20054;-82
2021/12/27 02:28:45;;;;;;;19.75;8.52;;;-1.60;99.90;;;;;;4937223;28;20047;-82
2021/12/27 02:31:11;;;;;;;15.40;7.82;;;-2.10;99.90;;;;;;4984127;28;20126;-82
2021/12/27 02:33:39;;;;;;;13.18;7.20;;;-1.90;99.90;;;;;;4956072;28;20060;-83
2021/12/27 02:36:06;;;;;;;12.60;6.50;;;-2.00;99.90;;;;;;4974190;28;20054;-82
2021/12/27 02:38:35;;;;;;;20.50;8.23;;;-1.70;99.90;;;;;;4955820;28;20062;-83
2021/12/27 02:41:01;;;;;;;15.55;7.18;;;-1.90;99.90;;;;;;4973234;28;20073;-82
2021/12/27 02:43:32;;;;;;;12.07;5.82;;;-2.00;99.90;;;;;;4976320;28;20053;-82
2021/12/27 02:46:04;;;;;;;15.43;8.02;;;-0.70;99.90;;;;;;4959333;28;20671;-82
2021/12/27 02:48:39;;;;;;;18.00;7.60;;;-1.90;99.90;;;;;;4971888;28;20077;-83
2021/12/27 02:51:05;;;;;;;13.75;7.25;;;-2.00;99.90;;;;;;4978610;28;20042;-82
2021/12/27 02:53:31;;;;;;;13.40;6.88;;;-1.90;99.90;;;;;;4972171;28;20493;-83
2021/12/27 02:55:58;;;;;;;11.88;6.82;;;-1.70;99.90;;;;;;4983454;28;20045;-83
2021/12/27 02:58:25;;;;;;;12.38;6.30;;;-1.60;99.90;;;;;;4959345;28;20058;-83
2021/12/27 03:00:58;;;;;;;12.38;6.18;;;-1.90;99.90;;;;;;4976127;28;20039;-83
2021/12/27 03:03:24;;;;;;;13.10;6.35;;;-1.90;99.90;;;;;;4975840;28;20483;-83
2021/12/27 03:05:50;;;;;;;9.35;4.75;;;-1.20;99.90;;;;;;4958564;28;20047;-83
2021/12/27 03:08:18;;;;;;;10.85;5.35;;;-1.10;99.90;;;;;;4975464;28;20053;-83
2021/12/27 03:10:46;;;;;;;12.95;6.47;;;-0.60;99.90;;;;;;4984065;28;20050;-83
2021/12/27 03:13:31;;;;;;;10.70;5.82;;;-1.90;99.90;;;;;;4975329;28;20106;-83
2021/12/27 03:16:05;;;;;;;13.40;6.75;;;-1.80;99.90;;;;;;4975839;28;20082;-83
2021/12/27 03:18:36;;;;;;;12.52;7.35;;;-1.80;99.90;;;;;;4980993;28;20039;-83
2021/12/27 03:21:03;;;;;;;14.00;7.05;;;-1.70;99.90;;;;;;4955112;28;20107;-83
2021/12/27 03:23:28;;;;;;;15.57;7.63;;;-1.70;99.90;;;;;;4975083;28;20049;-83
2021/12/27 03:25:54;;;;;;;13.55;7.43;;;-0.80;99.90;;;;;;4977835;28;20421;-82
2021/12/27 03:28:21;;;;;;;13.73;6.85;;;-0.70;99.90;;;;;;4974140;28;20378;-82
2021/12/27 03:30:48;;;;;;;17.48;7.35;;;-1.60;99.90;;;;;;4958117;28;20058;-82
2021/12/27 03:33:15;;;;;;;18.45;8.25;;;-1.70;99.90;;;;;;4974184;28;20035;-82
2021/12/27 03:35:51;;;;;;;12.75;7.10;;;-1.70;99.90;;;;;;4958067;28;20051;-82
2021/12/27 03:38:17;;;;;;;16.77;8.15;;;-1.70;99.90;;;;;;4966802;28;20116;-81
2021/12/27 03:40:44;;;;;;;14.60;7.95;;;-0.70;99.90;;;;;;4964888;28;20046;-82
2021/12/27 03:43:10;;;;;;;16.17;7.80;;;-0.80;99.90;;;;;;4981740;28;20092;-82
2021/12/27 03:45:39;;;;;;;15.50;7.43;;;-1.70;99.90;;;;;;4973954;28;20076;-82
2021/12/27 03:48:07;;;;;;;16.92;8.15;;;-1.10;99.90;;;;;;4974911;28;20505;-82
2021/12/27 03:50:34;;;;;;;16.48;7.95;;;-1.60;99.90;;;;;;4975727;28;20039;-82
2021/12/27 03:53:00;;;;;;;17.02;8.10;;;-1.50;99.90;;;;;;4975283;28;20064;-82
2021/12/27 03:55:26;;;;;;;17.27;9.00;;;-1.50;99.90;;;;;;4975284;28;20101;-82
2021/12/27 03:57:55;;;;;;;14.30;8.00;;;-1.50;99.90;;;;;;4974937;28;20070;-82
2021/12/27 04:00:46;;;;;;;16.67;8.30;;;-1.50;99.90;;;;;;4975661;28;20035;-81
2021/12/27 04:03:13;;;;;;;16.73;7.82;;;-1.20;99.90;;;;;;4942685;28;20047;-82
2021/12/27 04:05:39;;;;;;;16.48;7.22;;;-1.50;99.90;;;;;;4974310;28;20038;-82
2021/12/27 04:08:09;;;;;;;14.68;7.95;;;-1.50;99.90;;;;;;4979813;28;20048;-82
2021/12/27 04:10:38;;;;;;;15.02;8.63;;;-0.50;99.90;;;;;;4977131;28;20039;-82
2021/12/27 04:13:06;;;;;;;16.13;8.57;;;-0.80;99.90;;;;;;4957262;28;20121;-82
2021/12/27 04:15:32;;;;;;;15.77;7.75;;;-1.40;99.90;;;;;;4958118;28;20489;-82
2021/12/27 04:17:58;;;;;;;14.50;8.30;;;-1.40;99.90;;;;;;4982723;28;20058;-82
2021/12/27 04:20:24;;;;;;;14.77;7.88;;;-1.40;99.90;;;;;;4975234;28;20043;-82
2021/12/27 04:22:50;;;;;;;19.00;8.60;;;-1.40;99.90;;;;;;4982334;28;20089;-82
2021/12/27 04:25:18;;;;;;;16.67;8.02;;;-1.30;99.90;;;;;;4972488;28;20043;-82
2021/12/27 04:27:44;;;;;;;19.60;7.38;;;-1.20;99.90;;;;;;4957163;28;20047;-82
2021/12/27 04:30:11;;;;;;;12.65;6.80;;;-1.10;99.90;;;;;;4974935;28;20039;-82
2021/12/27 04:32:37;;;;;;;15.32;7.90;;;-1.30;99.90;;;;;;4957121;28;20082;-82
2021/12/27 04:35:03;;;;;;;16.17;7.68;;;-1.30;99.90;;;;;;4973653;28;20074;-82
2021/12/27 04:37:29;;;;;;;17.05;8.25;;;-1.30;99.90;;;;;;4977988;28;20457;-82
2021/12/27 04:39:57;;;;;;;14.07;7.50;;;-0.60;99.90;;;;;;4974911;28;20125;-82
2021/12/27 04:42:23;;;;;;;14.23;7.38;;;-1.30;99.90;;;;;;4974319;28;20074;-82
2021/12/27 04:44:49;;;;;;;15.25;7.32;;;0.90;99.90;;;;;;4973751;28;20456;-82
2021/12/27 04:47:16;;;;;;;12.40;6.20;;;-1.20;99.90;;;;;;4974117;28;20039;-82
2021/12/27 04:49:43;;;;;;;15.10;6.65;;;-0.50;99.90;;;;;;4974548;28;20042;-82
2021/12/27 04:52:10;;;;;;;13.55;7.38;;;-1.20;99.90;;;;;;4974088;28;20042;-82
2021/12/27 04:54:36;;;;;;;15.50;7.32;;;-1.20;99.90;;;;;;4956872;28;20067;-82
2021/12/27 04:57:02;;;;;;;14.65;6.88;;;-1.10;99.90;;;;;;4981291;28;20449;-82
2021/12/27 04:59:28;;;;;;;12.85;6.50;;;-1.10;99.90;;;;;;4974574;28;20054;-82
2021/12/27 05:01:54;;;;;;;15.48;6.97;;;-1.20;99.90;;;;;;4956393;28;20046;-82
2021/12/27 05:04:20;;;;;;;14.32;8.57;;;-1.10;99.90;;;;;;4973948;28;20094;-82
2021/12/27 05:06:46;;;;;;;15.18;8.18;;;0.50;99.90;;;;;;4974005;28;20104;-82
2021/12/27 05:09:11;;;;;;;13.57;6.90;;;-1.00;99.90;;;;;;4974256;28;20053;-82
2021/12/27 05:11:37;;;;;;;15.35;8.23;;;0.10;99.90;;;;;;4955997;28;20046;-82
2021/12/27 05:14:03;;;;;;;17.00;8.25;;;-0.50;99.90;;;;;;4980691;28;20129;-82
2021/12/27 05:16:29;;;;;;;15.70;7.38;;;-0.20;99.90;;;;;;4981713;28;20129;-82
2021/12/27 05:18:55;;;;;;;13.50;7.47;;;-1.00;99.90;;;;;;4973848;28;20182;-82
2021/12/27 05:21:21;;;;;;;13.48;6.70;;;-1.10;99.90;;;;;;4973844;28;20042;-82
2021/12/27 05:23:46;;;;;;;14.52;7.53;;;-1.80;99.90;;;;;;4973393;28;20489;-82
2021/12/27 05:26:12;;;;;;;15.98;7.75;;;0.40;99.90;;;;;;4981874;28;20039;-82
2021/12/27 05:28:38;;;;;;;15.40;8.20;;;-0.40;99.90;;;;;;4956330;28;20046;-82
2021/12/27 05:31:03;;;;;;;19.35;9.20;;;-1.00;99.90;;;;;;4973654;28;20045;-82
2021/12/27 05:33:29;;;;;;;17.52;7.80;;;-0.20;99.90;;;;;;4956143;28;20086;-82
2021/12/27 05:35:55;;;;;;;18.27;8.43;;;-1.00;99.90;;;;;;4963429;28;20087;-81
2021/12/27 05:38:21;;;;;;;17.55;8.73;;;-0.90;99.90;;;;;;4973287;28;20113;-82
2021/12/27 05:40:47;;;;;;;17.60;8.80;;;-0.90;99.90;;;;;;4973910;28;20441;-82
2021/12/27 05:43:12;;;;;;;18.10;9.55;;;-0.90;99.90;;;;;;4972942;28;20106;-82
2021/12/27 05:45:38;;;;;;;15.15;8.00;;;-0.10;99.90;;;;;;4977826;28;20039;-82
2021/12/27 05:48:06;;;;;;;17.67;9.68;;;-0.90;99.90;;;;;;4974753;28;20057;-82
2021/12/27 05:50:32;;;;;;;15.68;8.52;;;-0.80;99.90;;;;;;4973996;28;20126;-82
2021/12/27 05:52:58;;;;;;;15.25;8.35;;;-0.80;99.90;;;;;;4956777;28;20042;-82
2021/12/27 05:55:24;;;;;;;15.05;7.85;;;0.00;99.90;;;;;;4973591;28;20492;-82
2021/12/27 05:57:50;;;;;;;14.02;7.50;;;0.30;99.90;;;;;;4959697;28;20135;-82
2021/12/27 06:00:17;;;;;;;15.15;6.53;;;-0.90;99.90;;;;;;4977500;28;20043;-82
2021/12/27 06:02:43;;;;;;;15.55;8.25;;;-0.20;99.90;;;;;;4977349;28;20093;-82
2021/12/27 06:05:11;;;;;;;14.45;7.80;;;-0.60;99.90;;;;;;4978194;28;20138;-82
2021/12/27 06:07:37;;;;;;;15.23;7.63;;;-0.90;99.90;;;;;;4983568;28;20054;-82
2021/12/27 06:10:04;;;;;;;17.13;8.48;;;-0.80;99.90;;;;;;4977476;28;20038;-82
2021/12/27 06:12:31;;;;;;;15.30;7.65;;;-0.80;99.90;;;;;;4959873;28;20042;-82
2021/12/27 06:14:57;;;;;;;14.82;7.18;;;-0.90;99.90;;;;;;4984095;28;20122;-82
2021/12/27 06:17:23;;;;;;;15.90;8.98;;;-0.80;99.90;;;;;;4976894;28;20121;-82
2021/12/27 06:19:48;;;;;;;16.38;8.27;;;0.10;99.90;;;;;;4976728;28;20096;-82
2021/12/27 06:22:15;;;;;;;14.93;7.93;;;-0.90;99.90;;;;;;4959718;28;20051;-82
2021/12/27 06:24:41;;;;;;;16.58;8.18;;;-0.80;99.90;;;;;;4959660;28;20109;-82
2021/12/27 06:27:06;;;;;;;16.80;8.82;;;-0.80;99.90;;;;;;4976482;28;20039;-82
2021/12/27 06:29:32;;;;;;;17.73;9.60;;;1.00;99.90;;;;;;4977336;28;20042;-82
2021/12/27 06:31:58;;;;;;;16.67;8.23;;;-0.60;99.90;;;;;;4976647;28;20059;-81
2021/12/27 06:34:23;;;;;;;16.60;8.45;;;-0.80;99.90;;;;;;4960934;28;20043;-82
2021/12/27 06:36:49;;;;;;;17.52;7.65;;;0.00;99.90;;;;;;4965102;28;20046;-82
2021/12/27 06:39:15;;;;;;;16.73;8.63;;;-0.70;99.90;;;;;;4983847;28;20103;-81
2021/12/27 06:41:41;;;;;;;15.07;7.28;;;0.00;99.90;;;;;;4980179;28;20054;-82
2021/12/27 06:44:06;;;;;;;15.70;8.15;;;-0.80;99.90;;;;;;4964003;28;20043;-82
2021/12/27 06:46:32;;;;;;;16.73;7.72;;;-0.80;99.90;;;;;;4975988;28;20031;-82
2021/12/27 06:48:58;;;;;;;14.07;7.28;;;-1.10;99.90;;;;;;4958988;28;20082;-82
2021/12/27 06:51:24;;;;;;;17.08;8.35;;;0.00;99.90;;;;;;4976972;28;20086;-82
2021/12/27 06:53:49;;;;;;;17.42;8.15;;;0.40;99.90;;;;;;4981875;28;20390;-82
2021/12/27 06:56:16;;;;;;;20.63;9.18;;;-0.80;99.90;;;;;;4959044;28;20059;-82
2021/12/27 06:58:41;;;;;;;17.30;8.90;;;-0.40;99.90;;;;;;4975852;28;20404;-82
2021/12/27 07:01:08;;;;;;;25.45;10.93;;;-0.80;99.90;;;;;;4976568;28;20046;-82
2021/12/27 07:03:34;;;;;;;19.63;10.70;;;-0.70;99.90;;;;;;4985100;28;20038;-82
2021/12/27 07:06:00;;;;;;;19.35;9.32;;;0.00;99.90;;;;;;4982495;28;20042;-82
2021/12/27 07:08:26;;;;;;;17.20;8.63;;;-0.50;99.90;;;;;;4975879;28;20493;-82
2021/12/27 07:10:53;;;;;;;21.88;10.15;;;-0.70;99.90;;;;;;4984200;28;20093;-82
2021/12/27 07:13:18;;;;;;;18.50;9.10;;;-0.70;99.90;;;;;;4975774;28;20081;-82
2021/12/27 07:15:45;;;;;;;19.98;9.05;;;-0.40;99.90;;;;;;4958433;28;20397;-82
2021/12/27 07:18:12;;;;;;;17.38;9.52;;;-0.40;99.90;;;;;;4975427;28;20051;-83
2021/12/27 07:20:38;;;;;;;16.25;8.82;;;0.00;99.90;;;;;;4975617;28;20110;-82
2021/12/27 07:23:06;;;;;;;17.45;8.45;;;-0.70;99.90;;;;;;4979016;28;20145;-82
2021/12/27 07:25:32;;;;;;;19.25;8.95;;;-0.70;99.90;;;;;;4979481;28;20397;-83
2021/12/27 07:27:58;;;;;;;16.30;7.70;;;-0.20;99.90;;;;;;4975952;28;20051;-82
2021/12/27 07:30:24;;;;;;;14.48;7.35;;;0.10;99.90;;;;;;4964699;28;20475;-82
2021/12/27 07:32:50;;;;;;;17.23;7.93;;;-0.80;99.90;;;;;;4955820;28;20138;-82
2021/12/27 07:35:16;;;;;;;17.70;7.38;;;-0.10;99.90;;;;;;4983308;28;20134;-82
2021/12/27 07:37:42;;;;;;;16.02;7.85;;;-0.70;99.90;;;;;;4975432;28;20125;-82
2021/12/27 07:40:10;;;;;;;15.70;6.88;;;-0.70;99.90;;;;;;4975516;28;20102;-82
2021/12/27 07:42:35;;;;;;;17.65;7.53;;;-0.70;99.90;;;;;;4975912;28;20078;-82
2021/12/27 07:45:02;;;;;;;18.38;7.15;;;-0.40;99.90;;;;;;4949925;28;20047;-89
2021/12/27 07:47:34;;;;;;;15.73;8.10;;;-0.60;99.90;;;;;;4967231;28;20552;-90
2021/12/27 08:06:03;;;;;;;21.17;9.55;;;-0.50;99.90;;;;;;5583388;23;20524;-82
2021/12/27 08:08:29;;;;;;;18.65;8.50;;;-0.60;99.90;;;;;;4985838;28;20078;-81
2021/12/27 08:10:55;;;;;;;21.83;10.60;;;0.10;99.90;;;;;;5002877;28;20061;-81
2021/12/27 08:13:21;;;;;;;21.02;10.38;;;-0.10;99.90;;;;;;5012675;28;20476;-83
2021/12/27 08:15:47;;;;;;;16.90;8.98;;;0.70;99.90;;;;;;5019056;28;20452;-81
2021/12/27 08:18:13;;;;;;;24.55;11.30;;;-0.50;99.90;;;;;;5002863;28;20046;-81
2021/12/27 08:20:39;;;;;;;20.50;10.45;;;0.00;99.90;;;;;;5004522;28;20086;-81
2021/12/27 08:23:05;;;;;;;26.92;9.80;;;-0.50;99.90;;;;;;5004880;28;20034;-82
2021/12/27 08:25:30;;;;;;;25.05;11.88;;;0.00;99.90;;;;;;5006337;28;20042;-81
2021/12/27 08:27:56;;;;;;;24.17;10.27;;;-0.40;99.90;;;;;;5002881;28;20074;-82
2021/12/27 08:30:22;;;;;;;22.33;9.95;;;-0.40;99.90;;;;;;5003120;28;20070;-82
2021/12/27 08:32:47;;;;;;;23.92;10.30;;;0.00;99.90;;;;;;5002354;28;20069;-81
2021/12/27 08:35:15;;;;;;;21.15;10.05;;;-0.40;99.90;;;;;;5002521;28;20057;-81
2021/12/27 08:37:41;;;;;;;18.88;9.02;;;-0.40;99.90;;;;;;5000452;28;20052;-81
2021/12/27 08:40:08;;;;;;;21.23;10.93;;;-0.30;99.90;;;;;;5013499;28;20088;-81
2021/12/27 08:42:34;;;;;;;22.17;10.25;;;-0.40;99.90;;;;;;5002283;28;20145;-82
2021/12/27 08:45:01;;;;;;;22.10;9.52;;;-0.40;99.90;;;;;;5003994;28;20494;-82
2021/12/27 08:47:26;;;;;;;18.45;9.07;;;0.80;99.90;;;;;;5003069;28;20117;-82
2021/12/27 08:49:52;;;;;;;20.85;8.98;;;-0.10;99.90;;;;;;5005897;28;20440;-82
2021/12/27 08:52:18;;;;;;;20.13;9.20;;;0.20;99.90;;;;;;5005136;28;20183;-83
2021/12/27 08:54:44;;;;;;;20.67;9.68;;;-0.30;99.90;;;;;;5002288;28;20042;-83
2021/12/27 08:57:09;;;;;;;21.73;10.35;;;0.00;99.90;;;;;;5002352;28;20042;-82
2021/12/27 08:59:36;;;;;;;21.38;9.85;;;-0.30;99.90;;;;;;5004833;28;20098;-83
2021/12/27 09:02:03;;;;;;;22.02;8.50;;;0.20;99.90;;;;;;5001007;28;20062;-82
2021/12/27 09:04:29;;;;;;;19.67;7.63;;;-0.20;99.90;;;;;;4996829;28;20049;-89
2021/12/27 09:06:55;;;;;;;18.58;8.60;;;-0.20;99.90;;;;;;5006143;28;20049;-82
2021/12/27 09:09:21;;;;;;;17.60;8.55;;;-0.20;99.90;;;;;;5005200;28;20061;-83
2021/12/27 09:11:47;;;;;;;17.85;7.38;;;0.50;99.90;;;;;;5012214;28;20045;-82
2021/12/27 09:14:13;;;;;;;16.35;7.95;;;0.60;99.90;;;;;;5000463;28;20455;-84
2021/12/27 09:16:38;;;;;;;18.33;8.55;;;0.60;99.90;;;;;;5009563;28;20046;-84
2021/12/27 09:19:04;;;;;;;16.55;7.55;;;-0.30;99.90;;;;;;4998357;28;20081;-83
2021/12/27 09:21:30;;;;;;;19.67;7.93;;;-0.10;99.90;;;;;;5012839;28;20073;-84
2021/12/27 09:23:56;;;;;;;19.38;8.82;;;-0.10;99.90;;;;;;5002660;28;20594;-83
2021/12/27 09:26:22;;;;;;;20.00;8.35;;;1.20;99.90;;;;;;5002043;28;20070;-85
2021/12/27 09:28:48;;;;;;;14.65;7.35;;;0.20;99.90;;;;;;5001185;28;20052;-84
2021/12/27 09:31:13;;;;;;;15.48;7.65;;;0.00;99.90;;;;;;4997737;28;20412;-86
2021/12/27 09:33:40;;;;;;;15.13;7.20;;;0.40;99.90;;;;;;5005506;28;20088;-84
2021/12/27 09:36:05;;;;;;;20.77;8.82;;;0.10;99.90;;;;;;4996572;28;20432;-85
2021/12/27 09:38:31;;;;;;;17.73;8.60;;;0.40;99.90;;;;;;5004874;28;20096;-84
2021/12/27 09:40:57;;;;;;;18.27;8.15;;;0.40;99.90;;;;;;5014846;28;20512;-86
2021/12/27 09:43:24;;;;;;;24.90;9.02;;;1.20;99.90;;;;;;5001855;28;20046;-86
2021/12/27 09:45:50;;;;;;;18.08;8.35;;;-0.10;99.90;;;;;;5001617;28;20153;-86
2021/12/27 09:48:16;;;;;;;20.48;8.65;;;0.60;99.90;;;;;;5000689;28;20552;-86
2021/12/27 09:50:51;;;;;;;23.15;8.80;;;0.00;99.90;;;;;;5007999;28;20046;-85
2021/12/27 09:53:17;;;;;;;18.30;8.60;;;0.10;99.90;;;;;;5016918;28;20049;-89
2021/12/27 09:55:43;;;;;;;21.05;8.88;;;0.00;99.90;;;;;;5001774;28;20043;-86
2021/12/27 09:58:08;;;;;;;22.45;8.20;;;1.20;99.90;;;;;;5001685;28;20401;-87
2021/12/27 10:00:36;;;;;;;22.98;8.90;;;-0.40;99.90;;;;;;5007438;28;20049;-86
2021/12/27 10:03:02;;;;;;;23.63;9.15;;;0.10;99.90;;;;;;5003687;28;20373;-85
2021/12/27 10:05:30;;;;;;;19.85;8.23;;;0.70;99.90;;;;;;5007616;28;20041;-86
2021/12/27 10:07:56;;;;;;;18.85;8.32;;;0.10;99.90;;;;;;5020577;28;20104;-86
2021/12/27 10:10:22;;;;;;;25.45;9.32;;;0.30;99.90;;;;;;5012981;28;20519;-86
2021/12/27 10:12:49;;;;;;;17.23;8.30;;;0.20;99.90;;;;;;5019888;28;20562;-85
2021/12/27 10:15:21;;;;;;;15.82;7.70;;;0.20;99.90;;;;;;5021091;28;20053;-85
2021/12/27 10:17:48;;;;;;;16.13;7.63;;;0.70;99.90;;;;;;5023375;28;20061;-85
2021/12/27 10:20:24;;;;;;;19.90;8.35;;;0.40;99.90;;;;;;5032007;28;20117;-84
2021/12/27 10:22:51;;;;;;;;;;;1.10;99.90;;;;;;5030855;28;20081;-84
2021/12/27 10:25:19;;;;;;;21.55;8.20;;;0.20;99.90;;;;;;5020980;28;20015;-85
2021/12/27 10:27:48;;;;;;;19.55;7.68;;;0.10;99.90;;;;;;5019966;28;20125;-84
2021/12/27 10:30:18;;;;;;;18.98;8.88;;;0.20;99.90;;;;;;5018449;28;20089;-84
2021/12/27 10:33:00;;;;;;;21.95;8.68;;;0.30;99.90;;;;;;5020474;28;20396;-87
2021/12/27 10:35:37;;;;;;;21.33;9.63;;;0.30;99.90;;;;;;5016249;28;20168;-86
2021/12/27 10:38:26;;;;;;;20.23;8.45;;;0.30;99.90;;;;;;5023062;28;20071;-85
2021/12/27 10:40:53;;;;;;;20.58;7.70;;;0.30;99.90;;;;;;5028902;28;20049;-85
2021/12/27 10:43:39;;;;;;;21.30;9.63;;;0.30;99.90;;;;;;5032553;28;20057;-84
2021/12/27 10:46:06;;;;;;;20.48;8.77;;;0.30;99.90;;;;;;5026276;28;20404;-83
2021/12/27 10:48:38;;;;;;;21.45;8.98;;;0.30;99.90;;;;;;5026250;28;20046;-83
2021/12/27 10:51:05;;;;;;;24.25;9.30;;;0.90;99.90;;;;;;5021249;28;20045;-84
2021/12/27 10:53:51;;;;;;;22.52;9.05;;;0.40;99.90;;;;;;5050941;28;20039;-83
2021/12/27 10:56:19;;;;;;;16.10;8.07;;;0.40;99.90;;;;;;5026746;28;20052;-84
2021/12/27 10:58:53;;;;;;;17.63;8.02;;;0.50;99.90;;;;;;5024511;28;20811;-84
2021/12/27 11:01:20;;;;;;;18.35;8.35;;;0.40;99.90;;;;;;5020635;28;20074;-83
2021/12/27 11:03:51;;;;;;;19.65;8.38;;;0.80;99.90;;;;;;5024340;28;20057;-83
2021/12/27 11:06:23;;;;;;;19.30;8.05;;;1.60;99.90;;;;;;5034213;28;20049;-84
2021/12/27 11:08:51;;;;;;;20.73;9.00;;;1.20;99.90;;;;;;5047029;28;20041;-83
2021/12/27 11:11:19;;;;;;;22.58;7.40;;;0.90;99.90;;;;;;5044252;28;20083;-84
2021/12/27 11:13:47;;;;;;;20.27;7.60;;;0.50;99.90;;;;;;5046467;28;20050;-85
2021/12/27 11:16:13;;;;;;;25.77;9.57;;;0.60;99.90;;;;;;5047136;28;20127;-84
2021/12/27 11:18:40;;;;;;;19.77;8.55;;;1.30;99.90;;;;;;5020835;28;20120;-84
2021/12/27 11:21:14;;;;;;;25.00;9.73;;;1.20;99.90;;;;;;5044295;28;20128;-84
2021/12/27 11:23:41;;;;;;;23.95;9.75;;;0.70;99.90;;;;;;5021878;28;20067;-84
2021/12/27 11:26:12;;;;;;;23.85;9.13;;;1.00;99.90;;;;;;5038833;28;20044;-84
2021/12/27 11:28:40;;;;;;;21.88;9.32;;;0.70;99.90;;;;;;5046891;28;20072;-83
2021/12/27 11:31:28;;;;;;;27.20;10.80;;;0.70;99.90;;;;;;5059256;28;21186;-84
2021/12/27 11:34:03;;;;;;;26.88;10.65;;;0.80;99.90;;;;;;5045594;28;20041;-82
2021/12/27 11:36:30;;;;;;;26.98;10.48;;;0.80;99.90;;;;;;5043040;28;20045;-83
2021/12/27 11:38:57;;;;;;;23.67;10.05;;;0.90;99.90;;;;;;5050892;28;20041;-85
2021/12/27 11:41:35;;;;;;;21.63;8.85;;;0.90;99.90;;;;;;5048025;28;20071;-84
2021/12/27 11:44:05;;;;;;;23.65;8.82;;;0.90;99.90;;;;;;5044689;28;20037;-85
2021/12/27 11:46:46;;;;;;;27.83;10.65;;;1.90;99.90;;;;;;5046339;28;20047;-87
2021/12/27 11:49:13;;;;;;;27.38;10.70;;;1.00;99.90;;;;;;5047913;28;20551;-85
2021/12/27 11:51:40;;;;;;;25.13;10.32;;;1.10;99.90;;;;;;5053755;28;20041;-85
2021/12/27 11:54:27;;;;;;;27.73;10.75;;;2.20;99.90;;;;;;5058826;28;20502;-83
2021/12/27 11:56:53;;;;;;;25.67;10.27;;;2.20;99.90;;;;;;5045945;28;20119;-84
2021/12/27 11:59:22;;;;;;;27.38;9.82;;;1.10;99.90;;;;;;5035995;28;20140;-83
2021/12/27 12:01:51;;;;;;;23.25;9.75;;;1.00;99.90;;;;;;5028969;28;20056;-87
2021/12/27 12:04:46;;;;;;;28.73;10.35;;;1.40;99.90;;;;;;5026637;28;20107;-87
2021/12/27 12:07:31;;;;;;;27.48;11.25;;;1.10;99.90;;;;;;5043092;28;20059;-87
2021/12/27 12:09:58;;;;;;;25.38;10.02;;;0.90;99.90;;;;;;5058612;28;20132;-85
2021/12/27 12:12:23;;;;;;;27.35;11.07;;;1.00;99.90;;;;;;5043446;28;20127;-86
2021/12/27 12:15:00;;;;;;;27.08;10.75;;;1.60;99.90;;;;;;5024874;28;20120;-86
2021/12/27 12:17:48;;;;;;;28.15;9.88;;;1.10;99.90;;;;;;5042636;28;20138;-85
2021/12/27 12:20:26;;;;;;;22.98;8.55;;;2.50;99.90;;;;;;5029458;28;20407;-86
2021/12/27 12:23:08;;;;;;;26.55;10.55;;;1.30;99.90;;;;;;5027238;28;20065;-84
2021/12/27 12:25:36;;;;;;;24.65;9.77;;;1.30;99.90;;;;;;5045727;28;20042;-86
2021/12/27 12:28:11;;;;;;;27.02;10.52;;;1.10;99.90;;;;;;5037812;28;20052;-85
2021/12/27 12:30:38;;;;;;;34.70;12.00;;;1.10;99.90;;;;;;5045053;28;20048;-85
2021/12/27 12:33:08;;;;;;;29.48;10.30;;;1.10;99.90;;;;;;5037616;28;20045;-85
2021/12/27 12:35:48;;;;;;;25.23;10.45;;;1.20;99.90;;;;;;5027554;28;20048;-84
2021/12/27 12:38:34;;;;;;;27.45;11.63;;;1.20;99.90;;;;;;5038202;28;20076;-85
2021/12/27 12:41:20;;;;;;;33.78;12.73;;;2.00;99.90;;;;;;5042660;28;20060;-84
2021/12/27 12:43:54;;;;;;;38.63;14.63;;;1.30;99.90;;;;;;5040105;28;20580;-86
2021/12/27 12:46:40;;;;;;;29.52;12.50;;;2.00;99.90;;;;;;5027341;28;20037;-85
2021/12/27 12:49:19;;;;;;;;;;;1.30;99.90;;;;;;5042623;28;20052;-82
2021/12/27 12:51:50;;;;;;;29.13;11.05;;;1.30;99.90;;;;;;5017302;28;19928;-86
2021/12/27 12:54:34;;;;;;;23.27;9.40;;;2.00;99.90;;;;;;5003502;28;20075;-83
2021/12/27 12:57:05;;;;;;;23.52;8.73;;;1.30;99.90;;;;;;5059316;28;20037;-84
2021/12/27 12:59:36;;;;;;;22.75;8.15;;;1.50;99.90;;;;;;5039342;28;20048;-84
2021/12/27 13:02:13;;;;;;;21.33;8.07;;;1.30;99.90;;;;;;5052750;28;20052;-84
2021/12/27 13:04:41;;;;;;;32.70;11.05;;;1.80;99.90;;;;;;5026762;28;20049;-84
2021/12/27 13:07:08;;;;;;;24.42;9.52;;;1.30;99.90;;;;;;5042761;28;20057;-84
2021/12/27 13:09:50;;;;;;;24.77;9.18;;;1.30;99.90;;;;;;5041146;28;20124;-88